Time;durP1;ratioP1;P1;durP2;ratioP2;P2;SDS_P1;SDS_P2;PMS_P1;PMS_P2;Temp;Humidity;BMP_temperature;BMP_pressure;BME280_temperature;BME280_humidity;BME280_pressure;Samples;Min_cycle;Max_cycle;Signal;HPM_P1;HPM_P2
2023/09/25 00:02:05;;;;;;;1.63;1.10;;;19.30;61.70;;;;;;5022897;28;20444;-50
2023/09/25 00:04:35;;;;;;;1.33;1.10;;;19.30;61.40;;;;;;5020516;28;20463;-50
2023/09/25 00:07:04;;;;;;;1.30;1.20;;;19.30;61.00;;;;;;5016742;28;20448;-50
2023/09/25 00:09:32;;;;;;;1.40;1.30;;;19.30;62.60;;;;;;5023027;28;20467;-50
2023/09/25 00:12:00;;;;;;;2.30;0.93;;;19.30;61.20;;;;;;5021392;28;20431;-50
2023/09/25 00:14:29;;;;;;;2.10;1.10;;;19.30;61.30;;;;;;5020607;28;20990;-50
2023/09/25 00:16:57;;;;;;;1.37;1.00;;;19.30;60.70;;;;;;5017075;28;20435;-51
2023/09/25 00:19:25;;;;;;;2.47;1.00;;;19.30;61.00;;;;;;5021256;28;20457;-51
2023/09/25 00:21:55;;;;;;;1.30;0.97;;;19.30;61.40;;;;;;5019163;28;20468;-50
2023/09/25 00:24:23;;;;;;;2.20;1.03;;;19.30;61.60;;;;;;5023009;28;20550;-51
2023/09/25 00:26:51;;;;;;;1.47;1.10;;;19.30;61.30;;;;;;5022168;28;20500;-51
2023/09/25 00:29:20;;;;;;;1.27;0.97;;;19.30;61.50;;;;;;5022865;28;20957;-50
2023/09/25 00:31:48;;;;;;;1.20;1.00;;;19.30;61.50;;;;;;5036648;28;20439;-51
2023/09/25 00:34:16;;;;;;;2.00;0.90;;;19.30;61.30;;;;;;5021219;28;20468;-50
2023/09/25 00:36:44;;;;;;;1.50;1.20;;;19.30;61.00;;;;;;5011665;28;20813;-50
2023/09/25 00:39:14;;;;;;;0.97;0.80;;;19.20;60.80;;;;;;5024300;28;20555;-56
2023/09/25 00:41:42;;;;;;;1.10;1.00;;;19.20;60.80;;;;;;5016290;28;20879;-50
2023/09/25 00:44:12;;;;;;;1.70;1.13;;;19.20;61.10;;;;;;5021042;28;20487;-50
2023/09/25 00:46:40;;;;;;;1.40;1.07;;;19.20;61.00;;;;;;5021300;28;20448;-51
2023/09/25 00:49:09;;;;;;;1.40;1.23;;;19.20;61.00;;;;;;5019202;28;20538;-50
2023/09/25 00:51:38;;;;;;;1.30;1.00;;;19.20;61.10;;;;;;5018820;28;20479;-51
2023/09/25 00:54:07;;;;;;;1.53;1.07;;;19.20;61.20;;;;;;5021643;28;20867;-50
2023/09/25 00:56:37;;;;;;;2.10;1.03;;;19.20;61.40;;;;;;5019429;28;20512;-52
2023/09/25 00:59:06;;;;;;;1.77;1.33;;;19.20;61.20;;;;;;5017598;28;20453;-50
2023/09/25 01:01:35;;;;;;;1.43;1.23;;;19.20;61.20;;;;;;5025113;28;20950;-52
2023/09/25 01:04:03;;;;;;;1.77;1.10;;;19.20;61.10;;;;;;5038811;28;20444;-50
2023/09/25 01:06:31;;;;;;;1.60;1.00;;;19.20;61.20;;;;;;5016939;28;20451;-51
2023/09/25 01:09:00;;;;;;;1.73;1.10;;;19.20;61.30;;;;;;5018385;28;20454;-52
2023/09/25 01:11:29;;;;;;;1.50;1.30;;;19.20;61.30;;;;;;5023513;28;20511;-50
2023/09/25 01:13:59;;;;;;;1.57;0.93;;;19.20;61.20;;;;;;5020480;28;20464;-51
2023/09/25 01:16:27;;;;;;;1.43;1.10;;;19.20;61.30;;;;;;5018104;28;20432;-50
2023/09/25 01:18:59;;;;;;;1.60;1.13;;;19.20;61.00;;;;;;5038251;28;20444;-51
2023/09/25 01:21:28;;;;;;;1.30;1.13;;;19.20;61.20;;;;;;5015106;28;20440;-50
2023/09/25 01:23:58;;;;;;;1.43;1.00;;;19.20;61.20;;;;;;5015657;28;20460;-50
2023/09/25 01:26:26;;;;;;;1.50;0.90;;;19.20;61.70;;;;;;5019347;28;20429;-51
2023/09/25 01:28:54;;;;;;;1.63;0.70;;;19.20;61.60;;;;;;5021308;28;20628;-50
2023/09/25 01:31:22;;;;;;;1.27;0.90;;;19.20;61.80;;;;;;5026178;28;20476;-50
2023/09/25 01:33:51;;;;;;;1.30;1.10;;;19.20;61.80;;;;;;5035700;28;20484;-50
2023/09/25 01:36:19;;;;;;;1.20;0.90;;;19.20;61.80;;;;;;5015671;28;20464;-51
2023/09/25 01:38:47;;;;;;;1.20;1.07;;;19.20;61.80;;;;;;5024230;28;20432;-50
2023/09/25 01:41:17;;;;;;;2.03;1.50;;;19.20;61.80;;;;;;5023990;28;20460;-50
2023/09/25 01:43:45;;;;;;;1.00;0.77;;;19.20;61.90;;;;;;5010340;28;20467;-50
2023/09/25 01:46:13;;;;;;;2.00;1.00;;;19.20;61.80;;;;;;4999873;28;20468;-50
2023/09/25 01:48:41;;;;;;;1.60;0.87;;;19.20;61.90;;;;;;5004908;28;20442;-50
2023/09/25 01:51:10;;;;;;;1.50;0.90;;;19.20;61.70;;;;;;4997097;28;20478;-51
2023/09/25 01:53:39;;;;;;;1.10;0.80;;;19.20;61.80;;;;;;5003381;28;20475;-51
2023/09/25 01:56:12;;;;;;;1.87;1.13;;;19.20;61.80;;;;;;5037819;28;20468;-51
2023/09/25 01:58:42;;;;;;;1.37;1.00;;;19.20;61.80;;;;;;5000171;28;20444;-51
2023/09/25 02:01:10;;;;;;;1.47;1.23;;;19.20;61.90;;;;;;4991767;28;20527;-50
2023/09/25 02:03:39;;;;;;;1.67;0.97;;;19.20;61.90;;;;;;5006771;28;20449;-52
2023/09/25 02:06:08;;;;;;;1.10;1.00;;;19.20;62.00;;;;;;5008851;28;20558;-51
2023/09/25 02:08:36;;;;;;;1.37;1.00;;;19.20;62.00;;;;;;5001414;28;20433;-50
2023/09/25 02:11:04;;;;;;;1.47;0.80;;;19.20;62.10;;;;;;5011610;28;20462;-52
2023/09/25 02:13:33;;;;;;;1.27;1.00;;;19.20;62.00;;;;;;5027813;28;21164;-50
2023/09/25 02:16:03;;;;;;;1.57;1.10;;;19.10;61.80;;;;;;5008496;28;20453;-50
2023/09/25 02:18:31;;;;;;;1.30;1.20;;;19.20;62.10;;;;;;5006054;28;20930;-50
2023/09/25 02:20:59;;;;;;;1.27;1.10;;;19.20;62.10;;;;;;5012057;28;20516;-50
2023/09/25 02:23:27;;;;;;;1.30;0.90;;;19.20;62.10;;;;;;5008469;28;20471;-51
2023/09/25 02:25:57;;;;;;;1.10;0.73;;;19.20;62.10;;;;;;5025127;28;20469;-52
2023/09/25 02:28:25;;;;;;;1.00;0.60;;;19.10;62.00;;;;;;5020361;28;20444;-50
2023/09/25 02:30:53;;;;;;;1.77;0.90;;;19.10;62.10;;;;;;5022402;28;20509;-50
2023/09/25 02:33:23;;;;;;;1.97;1.27;;;19.10;62.00;;;;;;5022145;28;20467;-50
2023/09/25 02:35:52;;;;;;;1.07;0.80;;;19.10;62.10;;;;;;5017253;28;20474;-51
2023/09/25 02:38:20;;;;;;;1.03;0.80;;;19.10;62.10;;;;;;5023385;28;20472;-51
2023/09/25 02:40:48;;;;;;;1.67;1.00;;;19.10;62.00;;;;;;5022664;28;20473;-50
2023/09/25 02:43:16;;;;;;;1.37;1.00;;;19.10;62.10;;;;;;5024910;28;20498;-51
2023/09/25 02:45:45;;;;;;;1.53;0.87;;;19.10;62.00;;;;;;5009618;28;20471;-50
2023/09/25 02:48:14;;;;;;;1.43;1.13;;;19.10;62.00;;;;;;5019772;28;20433;-50
2023/09/25 02:50:44;;;;;;;0.70;0.50;;;19.10;62.40;;;;;;5020304;28;20564;-50
2023/09/25 02:53:12;;;;;;;1.80;1.00;;;19.10;62.00;;;;;;5024964;28;20508;-50
2023/09/25 02:55:40;;;;;;;1.50;1.07;;;19.10;62.00;;;;;;5026969;28;20997;-51
2023/09/25 02:58:08;;;;;;;1.60;1.20;;;19.10;62.00;;;;;;5023470;28;20444;-51
2023/09/25 03:00:38;;;;;;;1.30;1.00;;;19.10;62.00;;;;;;5008185;28;20809;-51
2023/09/25 03:03:08;;;;;;;1.50;1.20;;;19.10;62.00;;;;;;5003597;28;20452;-50
2023/09/25 03:05:37;;;;;;;1.57;1.30;;;19.10;62.00;;;;;;5013142;28;20518;-50
2023/09/25 03:08:07;;;;;;;1.33;1.23;;;19.10;62.10;;;;;;5023215;28;20441;-50
2023/09/25 03:10:35;;;;;;;1.20;0.80;;;19.10;62.00;;;;;;5024681;28;20460;-51
2023/09/25 03:13:03;;;;;;;1.70;1.10;;;19.10;62.00;;;;;;5022001;28;20511;-50
2023/09/25 03:15:31;;;;;;;0.93;0.67;;;19.10;62.10;;;;;;5010923;28;20527;-50
2023/09/25 03:17:59;;;;;;;1.37;0.70;;;19.10;62.20;;;;;;5001997;28;20972;-50
2023/09/25 03:20:28;;;;;;;1.10;0.80;;;19.00;63.20;;;;;;5009234;28;21080;-51
2023/09/25 03:22:58;;;;;;;1.07;0.80;;;19.00;62.00;;;;;;5025083;28;20457;-50
2023/09/25 03:25:27;;;;;;;1.17;0.73;;;19.00;62.10;;;;;;5010533;28;20818;-51
2023/09/25 03:27:56;;;;;;;1.43;0.90;;;19.00;62.20;;;;;;5010375;28;20433;-50
2023/09/25 03:30:25;;;;;;;1.17;0.90;;;19.00;62.10;;;;;;5022904;28;21228;-51
2023/09/25 03:32:54;;;;;;;1.27;0.90;;;19.00;62.10;;;;;;5025204;28;20468;-50
2023/09/25 03:35:24;;;;;;;1.43;1.10;;;19.00;62.00;;;;;;5017161;28;20477;-50
2023/09/25 03:37:52;;;;;;;1.17;0.90;;;19.00;62.10;;;;;;5024488;28;20470;-51
2023/09/25 03:40:20;;;;;;;1.37;1.00;;;19.00;62.00;;;;;;5027642;28;20476;-52
2023/09/25 03:42:50;;;;;;;1.23;0.90;;;19.00;62.20;;;;;;5021889;28;20456;-52
2023/09/25 03:45:18;;;;;;;0.97;0.77;;;19.00;62.00;;;;;;5022237;28;20464;-52
2023/09/25 03:47:48;;;;;;;1.20;0.90;;;19.00;62.20;;;;;;5023768;28;20958;-50
2023/09/25 03:50:16;;;;;;;1.57;1.13;;;19.00;62.20;;;;;;5020172;28;22317;-52
2023/09/25 03:52:44;;;;;;;1.67;1.10;;;19.00;62.00;;;;;;5026909;28;20453;-51
2023/09/25 03:55:13;;;;;;;1.13;0.67;;;18.90;62.10;;;;;;5021355;28;20628;-51
2023/09/25 03:57:41;;;;;;;1.10;0.77;;;18.90;62.10;;;;;;5024652;28;20443;-51
2023/09/25 04:00:12;;;;;;;1.03;0.70;;;18.90;62.20;;;;;;5021496;28;20881;-51
2023/09/25 04:02:40;;;;;;;1.27;1.00;;;18.90;62.10;;;;;;5026798;28;20477;-51
2023/09/25 04:05:09;;;;;;;1.30;1.00;;;18.90;61.90;;;;;;5022866;28;21039;-50
2023/09/25 04:07:37;;;;;;;1.73;1.00;;;18.90;62.00;;;;;;5022753;28;20424;-51
2023/09/25 04:10:07;;;;;;;1.10;0.70;;;18.90;62.10;;;;;;5024508;28;20478;-51
2023/09/25 04:12:35;;;;;;;1.30;1.20;;;18.90;62.20;;;;;;5024953;28;20456;-51
2023/09/25 04:15:04;;;;;;;0.90;0.57;;;18.90;62.20;;;;;;5024854;28;20467;-50
2023/09/25 04:17:34;;;;;;;1.50;1.20;;;18.90;62.20;;;;;;5021928;28;20591;-49
2023/09/25 04:20:08;;;;;;;1.97;1.10;;;18.90;62.10;;;;;;5024267;28;20622;-50
2023/09/25 04:22:37;;;;;;;1.13;0.83;;;18.90;62.10;;;;;;5023985;28;20757;-51
2023/09/25 04:25:08;;;;;;;1.17;0.90;;;18.90;62.30;;;;;;5023973;28;20451;-51
2023/09/25 04:27:39;;;;;;;1.50;0.90;;;18.90;62.10;;;;;;5023179;28;20490;-51
2023/09/25 04:30:09;;;;;;;1.10;0.80;;;18.90;62.10;;;;;;5027233;28;20536;-49
2023/09/25 04:32:40;;;;;;;1.63;0.80;;;18.90;62.10;;;;;;5026748;28;20464;-51
2023/09/25 04:35:09;;;;;;;1.13;0.90;;;18.90;63.10;;;;;;5019951;28;20533;-49
2023/09/25 04:37:38;;;;;;;1.10;0.90;;;18.80;61.20;;;;;;5026166;28;20432;-50
2023/09/25 04:40:14;;;;;;;2.17;1.00;;;18.80;61.10;;;;;;5015742;28;21024;-50
2023/09/25 04:42:42;;;;;;;1.63;1.07;;;18.80;60.50;;;;;;5006683;28;21043;-51
2023/09/25 04:45:13;;;;;;;1.50;0.93;;;18.70;60.60;;;;;;5013987;28;20559;-49
2023/09/25 04:47:42;;;;;;;1.30;1.00;;;18.70;60.90;;;;;;5025804;28;20530;-52
2023/09/25 04:50:11;;;;;;;1.80;1.00;;;18.70;60.80;;;;;;5022035;28;20559;-50
2023/09/25 04:52:41;;;;;;;1.80;1.20;;;18.70;61.00;;;;;;5021474;28;20969;-51
2023/09/25 04:55:11;;;;;;;1.63;1.30;;;18.70;61.20;;;;;;5022800;28;20665;-50
2023/09/25 04:57:40;;;;;;;1.30;1.00;;;18.70;61.00;;;;;;5024525;28;20455;-52
2023/09/25 05:00:14;;;;;;;1.30;1.20;;;18.60;60.70;;;;;;5020991;28;20471;-52
2023/09/25 05:02:45;;;;;;;1.30;1.00;;;18.60;60.50;;;;;;5023520;28;20448;-50
2023/09/25 05:05:14;;;;;;;1.60;1.07;;;18.60;60.90;;;;;;5019458;28;21014;-51
2023/09/25 05:07:43;;;;;;;1.67;1.33;;;18.60;60.70;;;;;;5020715;28;20448;-50
2023/09/25 05:10:12;;;;;;;1.00;0.70;;;18.60;60.40;;;;;;5023636;28;20467;-51
2023/09/25 05:12:41;;;;;;;2.33;1.20;;;18.50;60.60;;;;;;5021128;28;20460;-49
2023/09/25 05:15:10;;;;;;;1.77;1.30;;;18.50;60.10;;;;;;5016485;28;20484;-51
2023/09/25 05:17:40;;;;;;;1.90;1.40;;;18.50;60.60;;;;;;5026494;28;20428;-50
2023/09/25 05:20:11;;;;;;;1.30;1.10;;;18.50;60.50;;;;;;5017881;28;20467;-50
2023/09/25 05:22:41;;;;;;;1.40;1.00;;;18.50;60.80;;;;;;5021187;28;20456;-56
2023/09/25 05:25:11;;;;;;;2.17;1.50;;;18.50;59.90;;;;;;5022853;28;20506;-49
2023/09/25 05:27:41;;;;;;;1.10;0.93;;;18.40;60.10;;;;;;5020306;28;20971;-51
2023/09/25 05:30:11;;;;;;;2.00;1.27;;;18.40;60.20;;;;;;5021974;28;21090;-50
2023/09/25 05:32:40;;;;;;;1.63;1.30;;;18.40;60.00;;;;;;5036188;28;20544;-51
2023/09/25 05:35:11;;;;;;;1.60;1.10;;;18.40;60.20;;;;;;5021618;28;20563;-51
2023/09/25 05:37:40;;;;;;;1.10;0.97;;;18.40;60.80;;;;;;5028452;28;20478;-51
2023/09/25 05:40:10;;;;;;;3.93;1.33;;;18.30;60.40;;;;;;5022287;28;20521;-50
2023/09/25 05:42:40;;;;;;;1.43;1.20;;;18.40;61.00;;;;;;5028703;28;20439;-55
2023/09/25 05:45:09;;;;;;;2.07;1.40;;;18.30;60.40;;;;;;5020327;28;20819;-50
2023/09/25 05:47:38;;;;;;;2.73;1.07;;;18.30;60.50;;;;;;5026949;28;20424;-49
2023/09/25 05:50:07;;;;;;;1.40;1.30;;;18.30;60.50;;;;;;5011719;28;20484;-50
2023/09/25 05:52:37;;;;;;;1.90;1.13;;;18.30;60.80;;;;;;5028193;28;20449;-50
2023/09/25 05:55:07;;;;;;;2.50;1.40;;;18.30;61.00;;;;;;5022188;28;20459;-55
2023/09/25 05:57:35;;;;;;;1.33;1.00;;;18.30;60.10;;;;;;5018429;28;21036;-51
2023/09/25 06:00:10;;;;;;;2.13;1.50;;;18.30;60.60;;;;;;5015882;28;20548;-51
2023/09/25 06:02:39;;;;;;;1.77;1.37;;;18.30;60.40;;;;;;5024722;28;20468;-51
2023/09/25 06:05:08;;;;;;;2.00;1.40;;;18.30;60.60;;;;;;5019584;28;20559;-50
2023/09/25 06:07:37;;;;;;;1.50;1.17;;;18.30;60.20;;;;;;5017002;28;20432;-49
2023/09/25 06:10:07;;;;;;;1.73;1.10;;;18.30;60.70;;;;;;5012831;28;21001;-50
2023/09/25 06:12:39;;;;;;;2.77;1.47;;;18.30;60.70;;;;;;5019644;28;20466;-51
2023/09/25 06:15:10;;;;;;;1.80;1.50;;;18.30;60.30;;;;;;5021822;28;20467;-50
2023/09/25 06:17:39;;;;;;;1.77;1.50;;;18.30;60.50;;;;;;5022588;28;20879;-51
2023/09/25 06:20:15;;;;;;;2.23;1.20;;;18.30;60.70;;;;;;5016296;28;20472;-50
2023/09/25 06:22:46;;;;;;;1.70;1.40;;;18.30;60.90;;;;;;5021662;28;20480;-51
2023/09/25 06:25:17;;;;;;;2.63;1.27;;;18.30;60.70;;;;;;5022410;28;20470;-51
2023/09/25 06:27:47;;;;;;;2.60;1.30;;;18.30;60.70;;;;;;5016831;28;20461;-50
2023/09/25 06:30:18;;;;;;;1.40;1.20;;;18.30;60.60;;;;;;5015331;28;20963;-50
2023/09/25 06:32:46;;;;;;;2.00;1.17;;;18.30;60.40;;;;;;5020287;28;20968;-50
2023/09/25 06:35:15;;;;;;;2.43;1.30;;;18.30;60.20;;;;;;5014742;28;20516;-51
2023/09/25 06:37:43;;;;;;;1.80;1.37;;;18.30;60.20;;;;;;5009227;28;20476;-51
2023/09/25 06:40:15;;;;;;;1.53;1.10;;;18.30;60.50;;;;;;5015346;28;20465;-51
2023/09/25 06:42:44;;;;;;;2.70;1.23;;;18.30;60.20;;;;;;5015164;28;20472;-50
2023/09/25 06:45:12;;;;;;;1.60;1.30;;;18.20;60.20;;;;;;5016593;28;20856;-50
2023/09/25 06:47:40;;;;;;;3.90;1.53;;;18.20;60.80;;;;;;5022196;28;20480;-51
2023/09/25 06:50:10;;;;;;;2.80;1.63;;;18.20;60.50;;;;;;5016198;28;20995;-50
2023/09/25 06:52:40;;;;;;;1.40;1.23;;;18.20;60.50;;;;;;5021046;28;20835;-51
2023/09/25 06:55:09;;;;;;;2.60;1.37;;;18.20;60.50;;;;;;5013809;28;20468;-51
2023/09/25 06:57:38;;;;;;;2.63;1.13;;;18.20;60.40;;;;;;5015153;28;20482;-50
2023/09/25 07:00:09;;;;;;;2.07;1.53;;;18.20;60.50;;;;;;5013447;28;20453;-50
2023/09/25 07:02:37;;;;;;;3.40;1.50;;;18.20;60.30;;;;;;5014172;28;20459;-51
2023/09/25 07:05:06;;;;;;;1.40;1.30;;;18.20;60.50;;;;;;5017429;28;20483;-51
2023/09/25 07:07:36;;;;;;;1.30;1.20;;;18.20;60.40;;;;;;5019618;28;20523;-50
2023/09/25 07:10:06;;;;;;;1.80;1.40;;;18.20;60.50;;;;;;5020037;28;20473;-51
2023/09/25 07:12:35;;;;;;;1.97;1.70;;;18.20;60.80;;;;;;5024552;28;20746;-51
2023/09/25 07:15:05;;;;;;;2.30;1.77;;;18.20;60.60;;;;;;5020761;28;20468;-50
2023/09/25 07:17:34;;;;;;;2.70;1.37;;;18.20;60.70;;;;;;5021578;28;20479;-50
2023/09/25 07:20:02;;;;;;;2.43;1.60;;;18.20;60.40;;;;;;5016800;28;20810;-51
2023/09/25 07:22:31;;;;;;;1.60;1.37;;;18.20;60.30;;;;;;5021202;28;20440;-51
2023/09/25 07:24:59;;;;;;;2.53;1.60;;;18.20;60.60;;;;;;5025458;28;21745;-50
2023/09/25 07:27:28;;;;;;;1.53;1.07;;;18.20;60.80;;;;;;5016212;28;20789;-50
2023/09/25 07:29:56;;;;;;;3.20;1.50;;;18.20;60.60;;;;;;5022639;28;20558;-51
2023/09/25 07:32:26;;;;;;;2.00;1.37;;;18.20;60.40;;;;;;5018554;28;20456;-50
2023/09/25 07:34:55;;;;;;;2.40;2.10;;;18.20;60.70;;;;;;5021985;28;20475;-51
2023/09/25 07:37:23;;;;;;;1.80;1.30;;;18.20;60.70;;;;;;5021005;28;20471;-51
2023/09/25 07:39:51;;;;;;;1.70;1.60;;;18.20;60.50;;;;;;5022034;28;20806;-50
2023/09/25 07:42:20;;;;;;;2.73;1.40;;;18.30;61.00;;;;;;5021927;28;20444;-50
2023/09/25 07:44:49;;;;;;;2.50;1.40;;;18.30;60.60;;;;;;5017875;28;20463;-51
2023/09/25 07:47:18;;;;;;;2.20;1.20;;;18.30;60.80;;;;;;5023682;28;20930;-51
2023/09/25 07:49:48;;;;;;;2.40;1.73;;;18.30;60.60;;;;;;5017910;28;20469;-50
2023/09/25 07:52:17;;;;;;;1.70;1.27;;;18.30;60.50;;;;;;5019214;28;20467;-51
2023/09/25 07:54:46;;;;;;;2.07;1.47;;;18.30;61.20;;;;;;5019108;28;20582;-51
2023/09/25 07:57:15;;;;;;;3.20;2.00;;;18.30;61.00;;;;;;5031882;28;20507;-50
2023/09/25 07:59:43;;;;;;;2.00;1.30;;;18.30;60.90;;;;;;5017997;28;20533;-50
2023/09/25 08:02:16;;;;;;;2.27;2.03;;;18.30;60.50;;;;;;5038538;28;20444;-53
2023/09/25 08:04:45;;;;;;;2.13;1.63;;;18.30;60.80;;;;;;5019976;28;20833;-58
2023/09/25 08:07:14;;;;;;;2.17;1.50;;;18.30;60.90;;;;;;5022712;28;21001;-50
2023/09/25 08:09:42;;;;;;;1.60;1.30;;;18.30;60.90;;;;;;5021975;28;20475;-52
2023/09/25 08:12:11;;;;;;;1.63;1.10;;;18.40;61.10;;;;;;5022532;28;20869;-51
2023/09/25 08:14:39;;;;;;;2.50;1.30;;;18.40;61.30;;;;;;5023288;28;20498;-51
2023/09/25 08:17:08;;;;;;;1.50;0.90;;;18.40;61.20;;;;;;5020678;28;20550;-50
2023/09/25 08:19:37;;;;;;;2.00;1.80;;;18.40;61.10;;;;;;5020477;28;20456;-50
2023/09/25 08:22:05;;;;;;;1.57;1.07;;;18.40;61.10;;;;;;5019673;28;20443;-51
2023/09/25 08:24:35;;;;;;;1.70;1.30;;;18.40;61.20;;;;;;5021691;28;20465;-50
2023/09/25 08:27:04;;;;;;;1.60;1.30;;;18.40;61.30;;;;;;5021922;28;20437;-50
2023/09/25 08:29:32;;;;;;;1.40;0.90;;;18.40;61.10;;;;;;5021612;28;20495;-50
2023/09/25 08:32:01;;;;;;;2.00;1.50;;;18.40;61.40;;;;;;5021899;28;20669;-50
2023/09/25 08:34:29;;;;;;;3.57;1.53;;;18.50;60.40;;;;;;5021342;28;20512;-50
2023/09/25 08:36:57;;;;;;;2.53;1.60;;;18.50;60.00;;;;;;5020587;28;21314;-51
2023/09/25 08:39:25;;;;;;;4.63;1.70;;;18.50;60.70;;;;;;5023711;28;21000;-51
2023/09/25 08:41:56;;;;;;;2.53;1.40;;;18.50;60.70;;;;;;5019845;28;20535;-50
2023/09/25 08:44:25;;;;;;;1.83;1.40;;;18.50;60.80;;;;;;5020848;28;20476;-51
2023/09/25 08:46:53;;;;;;;1.90;1.60;;;18.50;61.00;;;;;;5014572;28;20547;-51
2023/09/25 08:49:23;;;;;;;1.70;1.20;;;18.50;60.90;;;;;;5018722;28;20502;-51
2023/09/25 08:51:53;;;;;;;3.10;1.80;;;18.40;60.80;;;;;;5030124;28;20451;-50
2023/09/25 08:54:22;;;;;;;1.40;1.17;;;18.50;61.00;;;;;;5020695;28;20464;-52
2023/09/25 08:56:50;;;;;;;1.73;1.43;;;18.40;61.00;;;;;;5022063;28;20494;-50
2023/09/25 08:59:21;;;;;;;2.60;1.67;;;18.40;61.10;;;;;;5019321;28;20465;-50
2023/09/25 09:01:49;;;;;;;2.27;1.60;;;18.40;61.10;;;;;;5037171;28;20937;-52
2023/09/25 09:04:19;;;;;;;1.67;1.37;;;18.40;61.10;;;;;;5022919;28;20477;-51
2023/09/25 09:06:47;;;;;;;1.67;1.30;;;18.40;61.20;;;;;;5017947;28;20478;-51
2023/09/25 09:09:16;;;;;;;1.80;1.30;;;18.40;61.30;;;;;;5024798;28;20472;-52
2023/09/25 09:11:50;;;;;;;1.60;1.20;;;18.40;61.50;;;;;;5025918;28;21134;-52
2023/09/25 09:14:34;;;;;;;2.57;1.20;;;18.40;61.50;;;;;;5023107;28;20484;-51
2023/09/25 09:17:04;;;;;;;1.47;1.00;;;18.40;61.40;;;;;;5021846;28;20866;-51
2023/09/25 09:19:37;;;;;;;2.80;1.60;;;18.40;61.50;;;;;;5021695;28;20901;-51
2023/09/25 09:22:08;;;;;;;1.83;1.30;;;18.40;61.80;;;;;;5020259;28;20450;-52
2023/09/25 09:24:39;;;;;;;1.60;1.30;;;18.40;61.60;;;;;;5024126;28;20464;-51
2023/09/25 09:27:07;;;;;;;2.10;1.20;;;18.40;61.60;;;;;;5015876;28;20550;-50
2023/09/25 09:29:38;;;;;;;1.30;1.00;;;18.40;61.60;;;;;;5019135;28;20482;-50
2023/09/25 09:32:08;;;;;;;1.93;1.17;;;18.40;61.60;;;;;;5017932;28;20940;-51
2023/09/25 09:34:36;;;;;;;1.73;1.50;;;18.40;61.50;;;;;;5021972;28;20760;-50
2023/09/25 09:37:08;;;;;;;2.27;1.40;;;18.50;60.90;;;;;;5015038;28;20483;-51
2023/09/25 09:39:37;;;;;;;2.00;1.07;;;18.50;61.00;;;;;;5019623;28;20981;-51
2023/09/25 09:42:08;;;;;;;3.57;1.63;;;18.50;61.20;;;;;;5022285;28;20963;-52
2023/09/25 09:44:38;;;;;;;4.00;1.40;;;18.50;61.30;;;;;;5022290;28;20859;-51
2023/09/25 09:47:07;;;;;;;1.57;1.40;;;18.50;61.40;;;;;;5015238;28;20973;-52
2023/09/25 09:49:37;;;;;;;1.93;1.50;;;18.50;61.50;;;;;;5017957;28;20993;-50
2023/09/25 09:52:07;;;;;;;2.40;1.50;;;18.40;61.40;;;;;;5017966;28;20446;-50
2023/09/25 09:54:37;;;;;;;2.33;1.27;;;18.40;61.50;;;;;;5019824;28;20472;-50
2023/09/25 09:57:05;;;;;;;1.77;1.00;;;18.40;61.60;;;;;;5019908;28;20520;-51
2023/09/25 09:59:33;;;;;;;1.60;1.20;;;18.40;61.50;;;;;;5020320;28;20457;-50
2023/09/25 10:02:04;;;;;;;2.17;1.60;;;18.40;61.60;;;;;;5025940;28;20442;-51
2023/09/25 10:04:33;;;;;;;1.83;1.47;;;18.40;61.70;;;;;;5026955;28;20533;-50
2023/09/25 10:07:05;;;;;;;1.50;1.17;;;18.40;61.70;;;;;;5013468;28;20444;-50
2023/09/25 10:09:33;;;;;;;1.47;1.37;;;18.40;61.80;;;;;;5017083;28;20476;-51
2023/09/25 10:12:03;;;;;;;1.83;1.20;;;18.40;61.80;;;;;;5025059;28;20517;-50
2023/09/25 10:14:43;;;;;;;2.47;1.80;;;18.40;62.10;;;;;;5024707;28;20480;-50
2023/09/25 10:17:13;;;;;;;4.30;1.40;;;18.40;62.00;;;;;;5022650;28;20447;-50
2023/09/25 10:19:49;;;;;;;1.80;1.27;;;18.40;62.20;;;;;;5030066;28;20466;-51
2023/09/25 10:22:20;;;;;;;1.50;1.10;;;18.40;62.20;;;;;;5021408;28;20494;-51
2023/09/25 10:24:54;;;;;;;1.70;1.50;;;18.40;62.10;;;;;;5028820;28;20865;-50
2023/09/25 10:27:26;;;;;;;1.40;1.30;;;18.40;62.20;;;;;;5022124;28;20431;-50
2023/09/25 10:30:11;;;;;;;2.03;1.33;;;18.40;62.20;;;;;;5023781;28;20469;-51
2023/09/25 10:32:42;;;;;;;2.10;1.40;;;18.40;62.30;;;;;;5025189;28;20456;-52
2023/09/25 10:35:38;;;;;;;1.63;1.23;;;18.40;62.20;;;;;;5018814;28;20484;-51
2023/09/25 10:38:11;;;;;;;2.10;1.40;;;18.40;62.30;;;;;;5032876;28;20458;-51
2023/09/25 10:41:01;;;;;;;1.80;1.30;;;18.40;62.30;;;;;;5027094;28;20471;-50
2023/09/25 10:43:30;;;;;;;1.53;1.20;;;18.40;62.30;;;;;;5022413;28;20472;-51
2023/09/25 10:45:59;;;;;;;1.90;1.57;;;18.40;62.30;;;;;;5024526;28;20852;-49
2023/09/25 10:48:31;;;;;;;1.80;1.20;;;18.40;62.30;;;;;;5022668;28;20507;-49
2023/09/25 10:50:59;;;;;;;1.33;0.93;;;18.40;62.30;;;;;;5019015;28;20558;-50
2023/09/25 10:53:28;;;;;;;2.37;1.10;;;18.40;62.30;;;;;;5023277;28;20475;-51
2023/09/25 10:55:56;;;;;;;1.47;1.10;;;18.40;62.30;;;;;;5022113;28;20469;-51
2023/09/25 10:58:25;;;;;;;2.77;1.30;;;18.40;62.30;;;;;;5017929;28;20478;-50
2023/09/25 11:00:53;;;;;;;1.93;1.17;;;18.40;62.30;;;;;;5024425;28;20466;-50
2023/09/25 11:03:21;;;;;;;1.30;0.90;;;18.40;62.30;;;;;;5023346;28;20459;-50
2023/09/25 11:05:52;;;;;;;2.73;1.33;;;18.40;62.30;;;;;;5020512;28;20529;-51
2023/09/25 11:08:21;;;;;;;1.73;1.50;;;18.40;62.30;;;;;;5024122;28;20444;-50
2023/09/25 11:10:49;;;;;;;2.03;1.10;;;18.40;62.30;;;;;;5020401;28;20486;-51
2023/09/25 11:13:19;;;;;;;1.30;1.20;;;18.40;62.40;;;;;;5017803;28;20475;-51
2023/09/25 11:15:48;;;;;;;3.17;1.37;;;18.40;62.30;;;;;;5019281;28;20475;-50
2023/09/25 11:18:19;;;;;;;1.60;1.20;;;18.40;62.40;;;;;;5022251;28;20436;-51
2023/09/25 11:20:48;;;;;;;1.30;0.93;;;18.40;62.30;;;;;;5021603;28;20480;-51
2023/09/25 11:23:19;;;;;;;1.57;1.10;;;18.40;62.30;;;;;;5024579;28;20454;-50
2023/09/25 11:25:51;;;;;;;1.73;1.40;;;18.40;62.30;;;;;;5023371;28;20483;-52
2023/09/25 11:28:21;;;;;;;1.10;1.00;;;18.50;62.40;;;;;;5023004;28;20452;-51
2023/09/25 11:30:50;;;;;;;1.87;1.10;;;18.40;63.60;;;;;;5023169;28;20483;-50
2023/09/25 11:33:22;;;;;;;1.47;1.33;;;18.40;62.30;;;;;;5027189;28;20460;-50
2023/09/25 11:35:54;;;;;;;2.50;1.40;;;18.40;62.40;;;;;;5022116;28;20476;-50
2023/09/25 11:38:28;;;;;;;2.57;1.50;;;18.40;62.30;;;;;;5026791;28;20447;-50
2023/09/25 11:41:00;;;;;;;1.37;1.00;;;18.40;62.30;;;;;;5026932;28;20471;-50
2023/09/25 11:43:28;;;;;;;1.53;1.03;;;18.40;62.30;;;;;;5023556;28;20824;-51
2023/09/25 11:45:57;;;;;;;2.20;1.17;;;18.40;62.30;;;;;;5023467;28;20934;-52
2023/09/25 11:48:26;;;;;;;1.60;1.17;;;18.40;62.30;;;;;;5021657;28;20944;-50
2023/09/25 11:50:54;;;;;;;1.50;1.20;;;18.40;62.30;;;;;;5022589;28;20490;-50
2023/09/25 11:53:23;;;;;;;1.70;1.13;;;18.40;62.30;;;;;;5026911;28;20456;-52
2023/09/25 11:55:51;;;;;;;2.00;1.10;;;18.40;62.30;;;;;;5026902;28;20988;-50
2023/09/25 11:58:20;;;;;;;1.30;1.10;;;18.40;62.30;;;;;;5026360;28;20448;-51
2023/09/25 12:00:48;;;;;;;1.80;1.10;;;18.40;62.30;;;;;;5024626;28;20488;-50
2023/09/25 12:03:16;;;;;;;5.50;1.30;;;18.40;62.30;;;;;;5025775;28;20466;-50
2023/09/25 12:05:44;;;;;;;1.83;1.00;;;18.40;62.30;;;;;;5019949;28;20483;-50
2023/09/25 12:08:13;;;;;;;1.43;1.13;;;18.40;62.30;;;;;;5026566;28;20436;-50
2023/09/25 12:10:42;;;;;;;1.40;1.17;;;18.50;62.40;;;;;;5020481;28;20512;-50
2023/09/25 12:13:11;;;;;;;1.63;1.40;;;18.40;62.30;;;;;;5023957;28;20468;-52
2023/09/25 12:15:39;;;;;;;1.67;1.00;;;18.40;62.30;;;;;;5021771;28;20491;-51
2023/09/25 12:18:07;;;;;;;2.73;1.30;;;18.50;62.40;;;;;;5018949;28;20448;-51
2023/09/25 12:20:41;;;;;;;1.10;0.90;;;18.50;62.40;;;;;;5021172;28;20490;-50
2023/09/25 12:23:10;;;;;;;1.60;1.07;;;18.50;62.40;;;;;;5024806;28;20463;-50
2023/09/25 12:25:38;;;;;;;1.40;0.90;;;18.50;62.40;;;;;;5022673;28;20471;-50
2023/09/25 12:28:08;;;;;;;2.40;1.07;;;18.50;62.40;;;;;;5026157;28;20432;-50
2023/09/25 12:30:36;;;;;;;1.27;0.97;;;18.50;62.60;;;;;;5023181;28;20476;-51
2023/09/25 12:33:05;;;;;;;1.47;0.97;;;18.50;62.40;;;;;;5028291;28;20956;-51
2023/09/25 12:35:34;;;;;;;1.80;1.20;;;18.50;62.40;;;;;;5022415;28;20562;-50
2023/09/25 12:38:02;;;;;;;1.20;0.90;;;18.50;62.40;;;;;;5025079;28;20439;-51
2023/09/25 12:40:30;;;;;;;1.63;1.17;;;18.50;62.40;;;;;;5026235;28;20471;-50
2023/09/25 12:42:58;;;;;;;1.20;1.10;;;18.50;62.40;;;;;;5025831;28;20452;-50
2023/09/25 12:45:28;;;;;;;1.20;1.00;;;18.50;62.40;;;;;;5024327;28;20480;-50
2023/09/25 12:47:56;;;;;;;1.60;1.17;;;18.50;62.50;;;;;;5027527;28;20864;-50
2023/09/25 12:50:25;;;;;;;1.73;1.30;;;18.50;62.40;;;;;;5020320;28;20986;-51
2023/09/25 12:52:53;;;;;;;1.40;1.10;;;18.50;63.70;;;;;;5027114;28;20967;-51
2023/09/25 12:55:21;;;;;;;1.47;1.10;;;18.50;62.50;;;;;;5026570;28;21398;-51
2023/09/25 12:57:50;;;;;;;1.70;1.27;;;18.50;62.40;;;;;;5026472;28;20436;-51
2023/09/25 13:00:19;;;;;;;1.47;1.20;;;18.50;62.40;;;;;;5019531;28;20840;-50